Time;durP1;ratioP1;P1;durP2;ratioP2;P2;SDS_P1;SDS_P2;PMS_P1;PMS_P2;Temp;Humidity;BMP_temperature;BMP_pressure;BME280_temperature;BME280_humidity;BME280_pressure;Samples;Min_cycle;Max_cycle;Signal;HPM_P1;HPM_P2
2023/01/26 00:00:50;;;;;;;;;51.25;36.00;;;;;3.31;70.49;102222.16;5096802;27;46098;-53
2023/01/26 00:03:16;;;;;;;;;58.00;46.75;;;;;3.43;71.27;102247.09;5098552;27;45367;-50
2023/01/26 00:05:41;;;;;;;;;61.75;41.75;;;;;3.43;70.53;102252.38;5098698;27;45413;-50
2023/01/26 00:08:07;;;;;;;;;58.25;43.25;;;;;3.43;71.42;102236.59;5099021;27;45357;-48
2023/01/26 00:10:36;;;;;;;;;53.50;44.75;;;;;3.43;70.70;102234.81;5098082;27;46557;-48
2023/01/26 00:13:02;;;;;;;;;64.75;47.25;;;;;3.42;70.51;102232.25;5098616;27;45352;-52
2023/01/26 00:15:27;;;;;;;;;51.50;39.75;;;;;3.41;71.79;102226.13;5096739;27;45297;-44
2023/01/26 00:17:53;;;;;;;;;58.25;42.25;;;;;3.39;71.99;102227.97;5080524;27;45478;-52
2023/01/26 00:20:18;;;;;;;;;55.00;41.25;;;;;3.39;71.75;102213.97;5098665;27;45337;-49
2023/01/26 00:22:43;;;;;;;;;53.50;41.25;;;;;3.37;71.96;102200.00;5098314;27;45217;-52
2023/01/26 00:25:09;;;;;;;;;58.25;44.00;;;;;3.32;72.15;102202.81;5098113;27;45265;-51
2023/01/26 00:27:35;;;;;;;;;63.50;45.00;;;;;3.33;71.28;102203.66;5098429;27;45353;-53
2023/01/26 00:30:00;;;;;;;;;68.25;49.75;;;;;3.14;71.75;102174.66;5098167;27;47125;-52
2023/01/26 00:32:25;;;;;;;;;61.25;42.50;;;;;3.19;71.52;102196.38;5096233;27;45355;-46
2023/01/26 00:34:51;;;;;;;;;67.25;50.00;;;;;3.09;70.88;102189.78;5098258;27;45742;-52
2023/01/26 00:37:16;;;;;;;;;72.00;52.00;;;;;3.02;71.72;102191.81;5098271;27;45443;-51
2023/01/26 00:39:41;;;;;;;;;67.50;48.75;;;;;2.97;71.25;102184.09;5097770;27;46315;-49
2023/01/26 00:42:09;;;;;;;;;76.50;51.00;;;;;2.91;71.41;102175.63;5098087;27;45482;-52
2023/01/26 00:44:37;;;;;;;;;74.75;50.00;;;;;2.89;72.00;102169.56;5098191;27;45396;-51
2023/01/26 00:47:03;;;;;;;;;62.00;47.25;;;;;2.79;72.14;102158.56;5098211;27;45434;-51
2023/01/26 00:49:28;;;;;;;;;65.50;47.00;;;;;2.72;72.24;102155.31;5096070;27;45946;-49
2023/01/26 00:51:53;;;;;;;;;70.50;49.50;;;;;2.71;72.13;102150.16;5097845;27;45391;-50
2023/01/26 00:54:19;;;;;;;;;80.50;51.50;;;;;2.64;72.68;102141.66;5097804;27;45387;-53
2023/01/26 00:56:44;;;;;;;;;71.75;49.50;;;;;2.62;73.24;102159.25;5097006;27;46090;-54
2023/01/26 00:59:10;;;;;;;;;80.00;48.75;;;;;2.60;73.11;102154.97;5097148;27;47130;-54
2023/01/26 01:01:35;;;;;;;;;56.25;43.75;;;;;2.56;73.32;102148.13;5097760;27;45409;-49
2023/01/26 01:04:00;;;;;;;;;66.50;51.25;;;;;2.55;73.36;102157.78;5079456;27;45428;-52
2023/01/26 01:06:26;;;;;;;;;75.50;52.50;;;;;2.55;73.44;102152.53;5096119;27;45431;-50
2023/01/26 01:08:51;;;;;;;;;66.00;47.50;;;;;2.48;73.31;102146.63;5097527;27;45915;-51
2023/01/26 01:11:16;;;;;;;;;69.50;45.25;;;;;2.40;73.51;102137.34;5097519;27;45393;-53
2023/01/26 01:13:42;;;;;;;;;71.00;51.50;;;;;2.48;74.31;102149.28;5097702;27;45467;-47
2023/01/26 01:16:13;;;;;;;;;70.50;54.50;;;;;2.46;74.13;102148.50;5097788;27;45286;-49
2023/01/26 01:18:38;;;;;;;;;71.00;44.00;;;;;2.44;74.27;102141.56;5097362;27;47322;-42
2023/01/26 01:21:12;;;;;;;;;69.75;48.25;;;;;2.44;74.16;102139.81;5095711;27;45538;-54
2023/01/26 01:23:37;;;;;;;;;68.25;48.75;;;;;2.43;74.24;102137.25;5079298;27;45423;-46
2023/01/26 01:26:04;;;;;;;;;75.75;49.75;;;;;2.41;74.60;102134.69;5097592;27;45239;-49
2023/01/26 01:28:31;;;;;;;;;66.25;52.50;;;;;2.43;74.55;102132.00;5097294;27;46389;-47
2023/01/26 01:30:56;;;;;;;;;77.75;53.50;;;;;2.43;74.33;102142.50;5096388;27;45361;-49
2023/01/26 01:33:22;;;;;;;;;71.75;51.50;;;;;2.44;74.43;102131.06;5097561;27;45329;-46
2023/01/26 01:35:58;;;;;;;;;69.50;48.50;;;;;2.42;74.77;102131.13;5097337;27;45367;-47
2023/01/26 01:38:24;;;;;;;;;67.25;48.75;;;;;2.42;74.89;102125.03;5094999;27;45502;-47
2023/01/26 01:40:50;;;;;;;;;70.00;48.25;;;;;2.48;74.57;102127.41;5097294;27;45304;-43
2023/01/26 01:43:15;;;;;;;;;71.25;50.25;;;;;2.45;74.33;102136.28;5097290;27;45342;-52
2023/01/26 01:45:45;;;;;;;;;80.00;56.50;;;;;2.42;74.83;102130.28;5097044;27;45308;-53
2023/01/26 01:48:23;;;;;;;;;69.50;52.00;;;;;2.46;74.12;102137.13;5097076;27;45312;-44
2023/01/26 01:50:52;;;;;;;;;69.25;52.25;;;;;2.45;74.39;102130.19;5097093;27;45328;-54
2023/01/26 01:53:24;;;;;;;;;57.50;44.50;;;;;2.48;74.45;102138.75;5094660;27;45445;-53
2023/01/26 01:55:55;;;;;;;;;69.50;52.00;;;;;2.42;74.67;102114.53;5097045;27;45592;-50
2023/01/26 01:58:21;;;;;;;;;69.50;51.75;;;;;2.48;74.71;102133.50;5096748;27;46155;-54
2023/01/26 02:00:46;;;;;;;;;75.00;55.75;;;;;2.47;74.11;102133.59;5096500;27;45391;-52
2023/01/26 02:03:17;;;;;;;;;73.00;46.50;;;;;2.41;74.81;102118.94;5096938;27;45245;-50
2023/01/26 02:06:07;;;;;;;;;78.75;50.75;;;;;2.39;73.78;102123.38;5096893;27;45462;-50
2023/01/26 02:08:37;;;;;;;;;60.75;45.00;;;;;2.36;74.47;102120.88;5094281;27;46914;-50
2023/01/26 02:11:10;;;;;;;;;68.00;50.00;;;;;2.37;75.13;102127.84;5096653;27;45598;-49
2023/01/26 02:13:37;;;;;;;;;71.50;51.00;;;;;2.36;75.58;102126.13;5096540;27;45313;-52
2023/01/26 02:16:03;;;;;;;;;57.75;46.75;;;;;2.38;74.82;102121.66;5096812;27;45423;-53
2023/01/26 02:18:28;;;;;;;;;69.25;49.50;;;;;2.33;75.34;102118.38;5096502;27;46946;-51
2023/01/26 02:21:03;;;;;;;;;69.50;47.00;;;;;2.32;74.95;102118.41;5095987;27;45155;-50
2023/01/26 02:23:31;;;;;;;;;80.50;53.50;;;;;2.34;75.88;102124.47;5096818;27;45349;-53
2023/01/26 02:26:05;;;;;;;;;75.25;52.25;;;;;2.33;75.89;102125.41;5094886;27;45457;-54
2023/01/26 02:28:31;;;;;;;;;62.75;40.75;;;;;2.18;75.44;102101.44;5096353;27;47050;-54
2023/01/26 02:30:58;;;;;;;;;63.00;44.50;;;;;2.22;75.95;102112.69;5096543;27;45392;-49
2023/01/26 02:33:29;;;;;;;;;81.00;54.25;;;;;2.17;76.09;102120.72;5096621;27;45379;-52
2023/01/26 02:35:54;;;;;;;;;68.25;51.00;;;;;2.13;76.45;102116.50;5096706;27;45358;-50
2023/01/26 02:38:22;;;;;;;;;70.50;52.25;;;;;2.21;76.52;102126.72;5096366;27;47011;-54
2023/01/26 02:41:05;;;;;;;;;71.25;50.25;;;;;2.18;76.42;102117.19;5096197;27;45335;-53
2023/01/26 02:43:31;;;;;;;;;75.25;52.00;;;;;2.13;76.69;102113.88;5094197;27;45456;-50
2023/01/26 02:45:56;;;;;;;;;55.50;31.50;;;;;2.10;76.82;102111.38;5096707;27;45359;-52
2023/01/26 02:51:06;;;;;;;;;72.50;52.50;;;;;2.06;77.34;102104.53;5096016;27;45475;-53
2023/01/26 02:53:32;;;;;;;;;66.50;51.75;;;;;2.05;77.46;102108.06;5096315;27;45244;-54
2023/01/26 02:55:57;;;;;;;;;76.50;53.75;;;;;2.04;77.56;102105.53;5096137;27;45313;-52
2023/01/26 02:58:22;;;;;;;;;74.00;49.50;;;;;2.00;77.88;102105.63;5094407;27;46052;-50
2023/01/26 03:00:48;;;;;;;;;79.25;54.25;;;;;1.98;77.82;102096.97;5095968;27;45353;-52
2023/01/26 03:03:18;;;;;;;;;73.25;51.50;;;;;1.90;78.13;102082.44;5095995;27;45368;-48
2023/01/26 03:05:43;;;;;;;;;69.75;48.50;;;;;1.95;78.48;102107.56;5096524;27;45231;-49
2023/01/26 03:08:09;;;;;;;;;73.25;52.50;;;;;1.94;78.13;102100.63;5095802;27;45888;-48
2023/01/26 03:10:35;;;;;;;;;71.25;54.00;;;;;1.91;78.28;102102.50;5095846;27;45192;-54
2023/01/26 03:13:00;;;;;;;;;69.50;50.50;;;;;1.88;78.22;102098.22;5094056;27;45546;-53
2023/01/26 03:29:16;;;;;;;;;81.25;55.00;;;;;1.88;79.25;102079.00;5097462;27;45288;-52
2023/01/26 03:31:41;;;;;;;;;75.50;50.25;;;;;1.90;78.96;102074.56;5099137;27;45281;-52
2023/01/26 03:34:07;;;;;;;;;75.50;49.50;;;;;1.94;79.46;102081.41;5099381;27;45328;-54
2023/01/26 03:36:32;;;;;;;;;76.50;52.50;;;;;1.96;78.92;102069.91;5099414;27;45340;-53
2023/01/26 03:38:57;;;;;;;;;78.50;54.00;;;;;1.98;79.01;102072.47;5098933;27;45483;-52
2023/01/26 03:57:47;;;;;;;;;75.25;56.25;;;;;1.94;79.67;102066.50;5099023;27;45328;-51
2023/01/26 04:00:13;;;;;;;;;68.75;47.00;;;;;1.89;79.28;102051.84;5098487;27;46309;-47
2023/01/26 04:08:26;;;;;;;;;73.00;52.00;;;;;1.96;79.64;102054.16;5099020;27;45427;-53
2023/01/26 04:10:55;;;;;;;;;77.75;54.25;;;;;2.00;79.76;102057.53;5098715;27;47240;-49
2023/01/26 04:21:36;;;;;;;;;63.75;51.75;;;;;2.02;79.79;102052.22;5098377;27;45967;-47
2023/01/26 04:24:08;;;;;;;;;69.50;49.25;;;;;2.05;79.54;102044.22;5098539;27;45316;-47
2023/01/26 04:26:35;;;;;;;;;68.75;54.50;;;;;2.01;79.17;102054.00;5098149;27;45519;-51
2023/01/26 04:29:02;;;;;;;;;77.75;53.00;;;;;2.01;79.43;102046.13;5098667;27;45546;-49
2023/01/26 04:31:27;;;;;;;;;80.25;52.50;;;;;2.02;79.05;102052.22;5097827;27;45407;-52
2023/01/26 04:33:52;;;;;;;;;77.50;51.00;;;;;2.02;79.68;102057.47;5098109;27;45443;-52
2023/01/26 04:36:18;;;;;;;;;66.75;50.50;;;;;1.96;79.54;102048.06;5096546;27;45761;-45
2023/01/26 04:38:43;;;;;;;;;80.00;54.00;;;;;1.96;79.70;102051.53;5098347;27;45368;-47
2023/01/26 04:41:08;;;;;;;;;70.50;48.50;;;;;1.58;79.91;101995.31;5097757;27;53367;-49
2023/01/26 04:43:33;;;;;;;;;63.50;51.50;;;;;1.92;80.12;102051.72;5097910;27;45499;-50
2023/01/26 04:46:06;;;;;;;;;71.00;49.25;;;;;1.97;80.22;102061.13;5098261;27;45411;-53
2023/01/26 04:48:32;;;;;;;;;76.50;51.50;;;;;2.00;80.16;102062.78;5098216;27;45368;-52
2023/01/26 04:51:03;;;;;;;;;62.50;44.75;;;;;1.96;80.30;102056.78;5098037;27;46159;-48
2023/01/26 04:53:33;;;;;;;;;85.75;55.50;;;;;1.97;80.17;102062.88;5096066;27;45587;-47
2023/01/26 04:55:58;;;;;;;;;62.00;52.00;;;;;1.93;79.88;102054.28;5097902;27;45373;-50
2023/01/26 04:58:24;;;;;;;;;75.50;48.25;;;;;1.93;80.26;102059.53;5098196;27;45474;-46
2023/01/26 05:00:54;;;;;;;;;68.75;49.25;;;;;1.89;80.33;102057.09;5097530;27;46837;-48
2023/01/26 05:03:19;;;;;;;;;69.50;51.50;;;;;1.87;80.92;102062.41;5097701;27;45355;-44
2023/01/26 05:05:48;;;;;;;;;58.25;48.00;;;;;1.87;80.64;102057.16;5097789;27;45411;-50
2023/01/26 05:08:14;;;;;;;;;63.00;45.75;;;;;1.84;80.67;102054.63;5095830;27;45545;-50
2023/01/26 05:10:39;;;;;;;;;72.25;51.00;;;;;1.87;80.73;102051.06;5097443;27;45969;-51
2023/01/26 05:13:04;;;;;;;;;74.00;52.25;;;;;1.88;80.99;102055.38;5097225;27;45940;-49
2023/01/26 05:15:30;;;;;;;;;65.00;47.50;;;;;1.81;81.09;102043.41;5097512;27;45336;-50
2023/01/26 05:17:58;;;;;;;;;70.00;47.50;;;;;1.87;81.10;102051.91;5079182;27;45593;-52
2023/01/26 05:20:24;;;;;;;;;72.50;47.00;;;;;1.90;81.04;102054.41;5097482;27;47404;-45
2023/01/26 05:22:49;;;;;;;;;73.00;54.50;;;;;1.88;80.80;102055.38;5097540;27;45377;-48
2023/01/26 05:25:14;;;;;;;;;67.75;48.50;;;;;1.89;80.60;102052.69;5095494;27;45350;-54
2023/01/26 05:27:40;;;;;;;;;55.75;42.50;;;;;1.95;80.53;102055.09;5097594;27;45382;-49
2023/01/26 05:30:06;;;;;;;;;65.50;46.50;;;;;1.94;80.38;102049.91;5096988;27;45557;-53
2023/01/26 05:32:31;;;;;;;;;74.50;47.25;;;;;1.95;80.30;102059.50;5097211;27;45403;-47
2023/01/26 05:34:56;;;;;;;;;73.25;49.00;;;;;1.95;80.72;102057.72;5097097;27;45450;-45
2023/01/26 05:37:27;;;;;;;;;61.75;48.50;;;;;1.98;80.46;102054.09;5097065;27;45914;-43
2023/01/26 05:39:52;;;;;;;;;66.75;49.50;;;;;1.98;80.59;102056.72;5097070;27;45406;-48
2023/01/26 05:42:18;;;;;;;;;72.50;47.25;;;;;1.96;80.48;102043.66;5095312;27;45786;-47
2023/01/26 05:44:43;;;;;;;;;75.50;50.00;;;;;2.01;80.44;102056.59;5096466;27;46194;-49
2023/01/26 05:47:09;;;;;;;;;72.00;48.25;;;;;1.89;80.23;102036.09;5097234;27;45404;-49
2023/01/26 05:49:37;;;;;;;;;70.00;52.00;;;;;1.97;80.47;102055.03;5096891;27;45365;-44
2023/01/26 05:52:08;;;;;;;;;70.50;49.00;;;;;1.97;80.54;102055.03;5096724;27;45351;-49
2023/01/26 05:54:34;;;;;;;;;61.00;51.00;;;;;1.97;80.63;102057.66;5097013;27;45412;-50
2023/01/26 05:56:59;;;;;;;;;51.50;46.25;;;;;2.00;80.70;102055.75;5097202;27;45280;-48
2023/01/26 05:59:24;;;;;;;;;72.00;50.50;;;;;1.88;80.83;102039.63;5094778;27;45355;-48
2023/01/26 06:01:49;;;;;;;;;66.50;46.25;;;;;2.02;80.92;102058.31;5096729;27;45455;-55
2023/01/26 06:04:15;;;;;;;;;69.00;50.00;;;;;2.05;80.79;102057.34;5096760;27;45271;-53
2023/01/26 06:06:40;;;;;;;;;62.50;49.25;;;;;2.11;80.47;102062.38;5097303;27;45315;-52
2023/01/26 06:09:06;;;;;;;;;66.00;48.75;;;;;2.11;80.91;102052.72;5096778;27;45927;-43
2023/01/26 06:11:32;;;;;;;;;66.50;50.75;;;;;2.14;80.64;102057.84;5096597;27;45367;-45
2023/01/26 06:13:57;;;;;;;;;71.75;52.00;;;;;2.18;81.35;102059.44;5096865;27;45424;-45
2023/01/26 06:16:22;;;;;;;;;68.25;49.50;;;;;2.20;80.76;102060.25;5095354;27;45420;-46
2023/01/26 06:18:48;;;;;;;;;63.50;46.00;;;;;2.20;80.59;102049.75;5096643;27;45482;-51
2023/01/26 06:21:14;;;;;;;;;63.50;45.75;;;;;2.09;80.85;102030.91;5096602;27;45451;-57
2023/01/26 06:23:41;;;;;;;;;80.25;50.00;;;;;2.21;81.11;102047.97;5096791;27;45317;-49
2023/01/26 06:26:06;;;;;;;;;64.50;49.00;;;;;2.24;80.51;102056.56;5096839;27;45387;-47
2023/01/26 06:28:32;;;;;;;;;67.00;43.50;;;;;2.25;80.93;102057.44;5096132;27;46306;-49
2023/01/26 06:31:01;;;;;;;;;74.00;47.50;;;;;2.30;80.94;102057.25;5096505;27;45293;-51
2023/01/26 06:33:26;;;;;;;;;65.50;43.75;;;;;2.33;81.09;102057.13;5094592;27;45381;-46
2023/01/26 06:35:53;;;;;;;;;56.75;45.75;;;;;2.30;81.14;102052.00;5096816;27;45270;-52
2023/01/26 06:38:19;;;;;;;;;64.75;43.50;;;;;2.31;81.20;102051.06;5096071;27;46255;-51
2023/01/26 06:40:44;;;;;;;;;67.25;47.50;;;;;2.31;80.89;102051.06;5096233;27;45297;-52
2023/01/26 06:43:09;;;;;;;;;74.75;47.50;;;;;2.17;80.62;102025.38;5096117;27;45426;-52
2023/01/26 06:45:35;;;;;;;;;59.50;45.75;;;;;2.29;81.16;102056.41;5078183;27;45455;-50
2023/01/26 06:48:00;;;;;;;;;66.25;49.00;;;;;2.26;81.12;102053.88;5096073;27;46289;-50
2023/01/26 06:50:31;;;;;;;;;69.25;50.00;;;;;2.32;81.03;102061.53;5094342;27;46258;-45
2023/01/26 06:52:59;;;;;;;;;51.50;44.50;;;;;2.33;80.99;102062.38;5096337;27;45431;-45
2023/01/26 06:55:35;;;;;;;;;62.75;44.00;;;;;2.34;80.84;102064.94;5098252;27;45363;-45
2023/01/26 06:58:01;;;;;;;;;57.25;46.00;;;;;2.37;80.67;102058.72;5099682;27;46669;-50
2023/01/26 07:00:26;;;;;;;;;59.25;47.50;;;;;2.40;80.75;102066.44;5099530;27;45335;-50
2023/01/26 07:02:52;;;;;;;;;64.00;45.75;;;;;2.39;81.28;102062.97;5099787;27;45223;-43
2023/01/26 07:05:17;;;;;;;;;63.75;43.75;;;;;2.37;80.96;102062.19;5097984;27;45472;-43
2023/01/26 07:07:43;;;;;;;;;63.50;44.25;;;;;2.40;79.80;102069.06;5099374;27;45477;-44
2023/01/26 07:10:09;;;;;;;;;68.50;46.50;;;;;2.42;80.47;102075.13;5099375;27;45336;-46
2023/01/26 07:12:43;;;;;;;;;66.50;51.75;;;;;2.06;80.73;102009.19;5099690;27;45455;-52
2023/01/26 07:15:10;;;;;;;;;65.50;44.75;;;;;2.41;80.45;102060.31;5099481;27;45336;-52
2023/01/26 07:17:36;;;;;;;;;61.75;46.50;;;;;2.42;80.47;102062.84;5098952;27;46559;-47
2023/01/26 07:20:01;;;;;;;;;57.50;42.75;;;;;2.38;80.51;102060.41;5099314;27;45448;-45
2023/01/26 07:22:27;;;;;;;;;70.25;48.75;;;;;2.39;80.71;102055.09;5097899;27;45623;-50
2023/01/26 07:24:52;;;;;;;;;61.50;47.25;;;;;2.39;80.78;102052.47;5099731;27;45479;-46
2023/01/26 07:27:17;;;;;;;;;69.25;50.25;;;;;2.45;80.80;102072.41;5099148;27;45486;-51
2023/01/26 07:29:45;;;;;;;;;65.75;46.00;;;;;2.43;80.50;102063.72;5098801;27;49951;-48
2023/01/26 07:32:10;;;;;;;;;66.25;46.75;;;;;2.52;81.05;102068.59;5095274;27;45882;-50
2023/01/26 07:34:36;;;;;;;;;66.00;47.75;;;;;2.57;80.49;102076.28;5078790;28;45326;-54
2023/01/26 07:37:01;;;;;;;;;67.75;47.50;;;;;2.55;80.20;102076.34;5078042;28;46580;-59
2023/01/26 07:39:26;;;;;;;;;60.50;40.00;;;;;2.46;80.24;102069.69;5081161;27;45546;-49
2023/01/26 07:41:52;;;;;;;;;59.50;39.50;;;;;2.50;80.43;102068.66;5096992;27;45324;-51
2023/01/26 07:44:17;;;;;;;;;68.50;43.00;;;;;2.52;80.32;102070.34;5077010;28;45423;-49
2023/01/26 07:46:42;;;;;;;;;67.00;45.00;;;;;2.50;80.56;102066.03;5060429;28;45287;-54
2023/01/26 07:49:10;;;;;;;;;60.50;48.00;;;;;2.50;80.19;102075.69;5077775;28;45455;-58
2023/01/26 07:51:36;;;;;;;;;63.00;41.25;;;;;2.47;80.03;102070.53;5078527;28;45405;-55
2023/01/26 07:54:02;;;;;;;;;66.00;48.25;;;;;2.50;80.22;102068.66;5078373;28;45511;-55
2023/01/26 07:56:27;;;;;;;;;64.50;45.00;;;;;2.54;80.80;102082.53;5077977;27;47685;-53
2023/01/26 07:58:53;;;;;;;;;69.50;49.50;;;;;2.56;80.07;102082.44;5085130;27;45765;-53
2023/01/26 08:01:20;;;;;;;;;63.75;48.75;;;;;2.54;80.36;102082.53;5075256;28;45443;-51
2023/01/26 08:03:49;;;;;;;;;67.75;41.75;;;;;2.20;80.56;102026.09;5075745;28;45508;-55
2023/01/26 08:06:15;;;;;;;;;68.75;51.75;;;;;2.57;80.52;102087.66;5074085;28;45435;-50
2023/01/26 08:08:41;;;;;;;;;69.50;52.25;;;;;2.49;80.18;102064.31;5073430;28;45486;-53
2023/01/26 08:11:08;;;;;;;;;63.50;44.75;;;;;2.51;80.92;102061.63;5074702;28;45463;-56
2023/01/26 08:13:33;;;;;;;;;71.00;47.50;;;;;2.65;80.48;102093.44;5076434;27;45497;-45
2023/01/26 08:16:17;;;;;;;;;66.50;50.25;;;;;2.71;80.00;102098.44;5073917;28;55786;-44
2023/01/26 08:18:44;;;;;;;;;55.75;44.00;;;;;2.74;80.22;102103.59;5074527;28;45384;-45
2023/01/26 08:21:12;;;;;;;;;73.00;52.75;;;;;2.74;80.28;102108.00;5074157;28;45506;-57
2023/01/26 08:23:38;;;;;;;;;64.00;47.50;;;;;2.79;80.66;102102.53;5074949;28;45426;-47
2023/01/26 08:26:12;;;;;;;;;72.25;47.75;;;;;2.79;80.54;102108.66;5074508;28;45467;-57
2023/01/26 08:28:37;;;;;;;;;65.25;46.75;;;;;2.81;80.45;102114.69;5076348;27;45500;-57
2023/01/26 08:31:10;;;;;;;;;66.50;52.00;;;;;2.82;79.85;102116.38;5074591;28;45444;-53
2023/01/26 08:33:35;;;;;;;;;70.25;48.50;;;;;2.81;80.04;102119.09;5074593;28;45401;-55
2023/01/26 08:36:03;;;;;;;;;64.75;48.75;;;;;2.68;80.73;102101.19;5074542;28;46213;-54
2023/01/26 08:38:32;;;;;;;;;69.25;47.25;;;;;2.83;80.18;102117.28;5074543;28;45799;-52
2023/01/26 08:40:58;;;;;;;;;65.00;49.00;;;;;2.86;80.09;102125.00;5074120;28;45492;-51
2023/01/26 08:43:24;;;;;;;;;69.00;47.00;;;;;2.90;80.11;102121.34;5075111;28;46353;-57
2023/01/26 08:45:49;;;;;;;;;64.75;48.75;;;;;2.90;80.00;102126.59;5073720;28;46137;-54
2023/01/26 08:48:14;;;;;;;;;69.75;50.50;;;;;2.94;79.80;102123.75;5074530;28;45591;-60
2023/01/26 08:50:40;;;;;;;;;66.75;48.75;;;;;2.99;79.27;102126.19;5074825;28;45875;-57
2023/01/26 08:53:05;;;;;;;;;65.75;46.00;;;;;3.02;79.70;102126.09;5073895;28;45702;-54
2023/01/26 08:55:31;;;;;;;;;56.50;38.25;;;;;3.05;79.23;102120.69;5074306;28;48401;-58
2023/01/26 08:57:57;;;;;;;;;70.75;52.75;;;;;2.95;79.30;102104.47;5072957;28;45425;-43
2023/01/26 09:00:23;;;;;;;;;67.25;49.75;;;;;3.07;79.81;102123.25;5074588;28;45579;-58
2023/01/26 09:02:49;;;;;;;;;68.00;50.75;;;;;3.14;79.72;102122.94;5074649;28;45321;-57
2023/01/26 09:05:15;;;;;;;;;80.25;47.00;;;;;3.20;79.20;102122.69;5073685;28;47358;-56
2023/01/26 09:07:40;;;;;;;;;76.50;50.75;;;;;3.22;79.39;102120.84;5056046;28;45501;-58
2023/01/26 09:10:06;;;;;;;;;74.75;53.75;;;;;3.29;79.22;102117.94;5074375;28;45515;-60
2023/01/26 09:12:32;;;;;;;;;67.00;43.75;;;;;3.28;79.45;102111.81;5074625;28;45626;-54
2023/01/26 09:14:57;;;;;;;;;70.50;48.00;;;;;3.39;78.63;102130.63;5073649;28;45763;-58
2023/01/26 09:17:22;;;;;;;;;59.75;48.00;;;;;3.40;79.12;102136.75;5073549;28;45659;-51
2023/01/26 09:19:47;;;;;;;;;68.25;47.75;;;;;3.40;78.68;102134.97;5073208;28;45470;-61
2023/01/26 09:22:13;;;;;;;;;72.75;51.00;;;;;3.47;78.75;102136.41;5074112;28;45467;-55
2023/01/26 09:24:38;;;;;;;;;74.50;51.75;;;;;3.56;78.99;102148.31;5073975;28;46322;-52
2023/01/26 09:27:03;;;;;;;;;69.50;49.00;;;;;3.59;79.19;102148.19;5073309;28;46243;-53
2023/01/26 09:29:29;;;;;;;;;69.75;47.25;;;;;3.53;78.93;102153.69;5074186;28;45442;-55
2023/01/26 09:31:54;;;;;;;;;68.00;47.00;;;;;3.56;79.19;102142.19;5073657;28;45781;-55
2023/01/26 09:34:19;;;;;;;;;65.00;48.25;;;;;3.62;78.04;102153.28;5073382;28;50224;-60
2023/01/26 09:36:45;;;;;;;;;66.25;48.25;;;;;3.67;78.77;102151.34;5073290;28;48079;-58
2023/01/26 09:39:10;;;;;;;;;67.75;50.00;;;;;3.70;77.71;102151.19;5073660;28;46343;-57
2023/01/26 09:42:03;;;;;;;;;66.75;49.75;;;;;3.74;78.14;102155.38;5074107;28;45661;-59
2023/01/26 09:44:39;;;;;;;;;70.50;50.50;;;;;3.81;77.73;102155.13;5070949;28;45641;-60
2023/01/26 09:47:14;;;;;;;;;61.00;47.25;;;;;3.78;78.26;102136.84;5073358;28;45408;-60
2023/01/26 09:49:54;;;;;;;;;66.75;47.00;;;;;3.95;77.59;102155.34;5073670;28;45580;-60
2023/01/26 09:52:28;;;;;;;;;60.75;38.75;;;;;3.97;77.53;102148.25;5072851;28;45396;-58
2023/01/26 09:54:58;;;;;;;;;55.75;42.75;;;;;4.12;78.54;102158.06;5072844;28;45446;-60
2023/01/26 09:57:29;;;;;;;;;48.00;39.00;;;;;4.18;78.23;102156.94;5073197;28;45481;-53
2023/01/26 10:00:06;;;;;;;;;55.00;42.50;;;;;4.27;76.94;102159.16;5072950;28;45476;-60
2023/01/26 10:02:52;;;;;;;;;53.75;38.00;;;;;4.34;77.88;102162.34;5073640;28;45750;-55
2023/01/26 10:05:36;;;;;;;;;56.00;40.75;;;;;4.39;77.25;102155.94;5073171;28;45414;-60
2023/01/26 10:08:01;;;;;;;;;50.00;40.25;;;;;4.47;77.02;102160.84;5073200;28;45530;-59
2023/01/26 10:10:33;;;;;;;;;55.50;38.25;;;;;4.59;76.49;102157.63;5073142;28;45442;-54
2023/01/26 10:12:59;;;;;;;;;58.75;44.25;;;;;4.70;76.90;102160.59;5073517;28;45437;-58
2023/01/26 10:15:38;;;;;;;;;65.00;43.00;;;;;4.77;77.02;102162.97;5072824;28;45523;-60
2023/01/26 10:18:12;;;;;;;;;53.00;38.75;;;;;4.79;76.30;102166.34;5059603;28;45488;-62
2023/01/26 10:20:50;;;;;;;;;54.00;37.75;;;;;4.79;75.82;102158.44;5073093;28;45832;-46
2023/01/26 10:23:17;;;;;;;;;45.00;35.25;;;;;4.77;76.02;102163.81;5073385;28;45390;-59
2023/01/26 10:25:47;;;;;;;;;43.50;34.25;;;;;4.78;75.60;102169.94;5072484;28;47233;-60
2023/01/26 10:28:24;;;;;;;;;46.25;40.75;;;;;4.78;76.13;102172.56;5071049;28;45490;-58
2023/01/26 10:30:51;;;;;;;;;49.25;37.50;;;;;4.81;76.82;102167.16;5072108;28;45452;-59
2023/01/26 10:33:36;;;;;;;;;52.00;44.00;;;;;4.79;75.99;102164.56;5073096;28;46245;-60
2023/01/26 10:36:05;;;;;;;;;58.75;41.25;;;;;4.81;75.55;102170.63;5072045;28;46260;-58
2023/01/26 10:38:36;;;;;;;;;53.75;38.75;;;;;4.81;75.99;102167.16;5072368;28;45475;-47
2023/01/26 10:41:17;;;;;;;;;55.25;39.00;;;;;4.83;76.40;102163.50;5072840;28;45396;-55
2023/01/26 10:44:21;;;;;;;;;43.25;31.75;;;;;4.85;75.75;102156.38;5072593;28;45896;-49
2023/01/26 10:47:04;;;;;;;;;37.75;32.75;;;;;4.95;75.89;102154.97;4989473;28;47450;-47
2023/01/26 10:49:29;;;;;;;;;38.00;28.25;;;;;5.04;75.04;102152.81;4990133;28;46227;-59
2023/01/26 10:52:06;;;;;;;;;37.50;32.25;;;;;5.11;75.33;102160.34;4989695;28;45554;-60
2023/01/26 10:54:34;;;;;;;;;37.75;27.25;;;;;5.14;75.21;102149.66;4989396;28;45532;-43
2023/01/26 10:57:03;;;;;;;;;45.00;35.25;;;;;5.19;74.74;102152.06;4989377;28;45945;-57
2023/01/26 10:59:49;;;;;;;;;32.50;28.50;;;;;5.20;75.38;102149.34;4989787;28;46258;-56
2023/01/26 11:02:14;;;;;;;;;49.50;33.75;;;;;5.20;75.02;102146.69;4989965;28;45422;-60
2023/01/26 11:04:40;;;;;;;;;39.00;33.25;;;;;5.20;74.85;102144.06;4990044;28;45548;-53
2023/01/26 11:07:25;;;;;;;;;42.50;31.00;;;;;5.17;74.68;102140.72;4989554;28;45931;-58
2023/01/26 11:09:51;;;;;;;;;43.25;36.25;;;;;5.22;75.01;102139.56;4989228;28;45541;-46
2023/01/26 11:12:18;;;;;;;;;56.25;42.25;;;;;5.27;74.90;102136.69;4989911;28;45559;-59
2023/01/26 11:15:18;;;;;;;;;57.25;41.25;;;;;5.15;74.92;102109.16;4990082;28;45490;-60
2023/01/26 11:18:01;;;;;;;;;54.75;39.25;;;;;5.30;75.13;102123.31;4988875;28;45532;-60
2023/01/26 11:20:41;;;;;;;;;45.50;39.25;;;;;5.40;74.99;102129.00;4989836;28;45339;-60
2023/01/26 11:23:32;;;;;;;;;59.50;43.25;;;;;5.59;74.98;102129.72;5027226;28;45531;-57
2023/01/26 11:26:15;;;;;;;;;48.25;39.75;;;;;5.70;74.23;102115.97;5072134;28;45491;-46
2023/01/26 11:29:17;;;;;;;;;54.25;38.00;;;;;5.80;74.39;102111.06;5071248;28;46045;-60
2023/01/26 11:32:00;;;;;;;;;39.25;34.00;;;;;5.95;73.73;102111.13;5071543;28;45475;-60
2023/01/26 11:34:45;;;;;;;;;52.00;33.25;;;;;6.04;73.39;102103.63;5072129;28;45491;-59
2023/01/26 11:37:31;;;;;;;;;38.75;33.50;;;;;6.13;73.21;102118.97;5072024;28;45495;-58
2023/01/26 11:40:12;;;;;;;;;36.25;27.25;;;;;6.12;73.10;102112.84;5072072;28;46410;-52
2023/01/26 11:43:25;;;;;;;;;50.75;39.25;;;;;6.02;73.68;102108.97;5074029;28;45370;-58
2023/01/26 11:46:11;;;;;;;;;44.25;37.75;;;;;5.97;73.29;102105.75;4992732;28;45498;-54
2023/01/26 11:48:44;;;;;;;;;53.50;39.50;;;;;5.92;73.54;102105.16;4991640;28;45603;-59
2023/01/26 11:51:24;;;;;;;;;48.25;36.75;;;;;5.87;73.67;102104.50;4992786;28;46256;-59
2023/01/26 11:54:08;;;;;;;;;48.25;35.75;;;;;5.82;73.07;102107.41;4995398;28;46241;-58
2023/01/26 11:56:46;;;;;;;;;40.50;32.75;;;;;5.77;73.82;102106.78;4996315;28;45443;-48
2023/01/26 11:59:18;;;;;;;;;42.75;36.75;;;;;5.73;73.98;102099.94;4996358;28;45458;-57
2023/01/26 12:02:02;;;;;;;;;55.25;40.50;;;;;5.68;73.60;102105.47;4995679;28;46546;-57
2023/01/26 12:04:32;;;;;;;;;49.25;37.50;;;;;5.64;73.63;102096.03;4995282;28;45478;-51
2023/01/26 12:07:07;;;;;;;;;43.00;34.75;;;;;5.62;73.83;102108.47;4996180;28;45393;-46
2023/01/26 12:09:45;;;;;;;;;55.75;42.00;;;;;5.59;74.21;102113.91;4996164;28;45719;-46
2023/01/26 12:12:21;;;;;;;;;41.25;33.00;;;;;5.58;74.21;102106.91;4994314;28;46161;-60